Time;durP1;ratioP1;P1;durP2;ratioP2;P2;SDS_P1;SDS_P2;PMS_P1;PMS_P2;Temp;Humidity;BMP_temperature;BMP_pressure;BME280_temperature;BME280_humidity;BME280_pressure;Samples;Min_cycle;Max_cycle;Signal;HPM_P1;HPM_P2
2021/11/07 00:01:52;;;;;;;;;;;;;;;4.80;69.11;98895.23;1710857;82;24459;-85
2021/11/07 00:04:32;;;;;;;;;;;;;;;4.83;69.16;98890.39;1696026;82;20158;-85
2021/11/07 00:12:26;;;;;;;;;;;;;;;4.84;69.28;98876.53;1697123;83;26040;-84
2021/11/07 00:14:36;;;;;;;;;;;;;;;4.80;69.30;98878.38;1730528;81;24507;-84
2021/11/07 00:17:05;;;;;;;;;;;;;;;4.79;69.32;98875.42;1735871;82;20259;-84
2021/11/07 00:19:39;;;;;;;;;;;;;;;4.77;69.33;98878.97;1723039;83;24859;-84
2021/11/07 00:22:27;;;;;;;;;;;;;;;4.76;69.37;98872.94;1722126;83;22799;-84
2021/11/07 00:24:52;;;;;;;;;;;;;;;4.74;69.40;98864.39;1722567;83;26073;-84
2021/11/07 00:27:30;;;;;;;;;;;;;;;4.72;69.42;98858.86;1723355;81;24572;-84
2021/11/07 00:38:00;;;;;;;;;;;;;;;4.66;69.59;98851.32;1725161;82;25896;-83
2021/11/07 00:40:40;;;;;;;;;;;;;;;4.69;69.65;98842.95;1724787;81;25307;-83
2021/11/07 00:43:15;;;;;;;;;;;;;;;4.69;69.72;98834.37;1723430;83;20310;-84
2021/11/07 00:48:12;;;;;;;;;;;;;;;4.62;69.76;98832.02;1735905;82;22015;-83
2021/11/07 00:50:56;;;;;;;;;;;;;;;4.57;69.78;98833.95;1723755;81;26032;-84
2021/11/07 00:56:08;;;;;;;;;;;;;;;4.47;69.83;98824.81;1663897;85;20258;-83
2021/11/07 00:58:34;;;;;;;;;;;;;;;4.45;69.84;98829.69;1696452;84;25539;-84
2021/11/07 01:01:00;;;;;;;;;;;;;;;4.43;69.89;98825.00;1680117;84;22853;-84
2021/11/07 01:03:20;;;;;;;;;;;;;;;4.44;69.94;98831.43;1682333;84;26020;-84
2021/11/07 01:05:46;;;;;;;;;;;;;;;4.47;70.00;98819.63;1687950;84;24480;-83
2021/11/07 01:08:12;;;;;;;;;;;;;;;4.49;70.07;98817.84;1689402;84;20342;-83
2021/11/07 01:10:38;;;;;;;;;;;;;;;4.50;70.11;98816.94;1688549;84;24785;-83
2021/11/07 01:13:04;;;;;;;;;;;;;;;4.53;70.17;98810.33;1688828;84;22058;-83
2021/11/07 01:15:32;;;;;;;;;;;;;;;4.55;70.23;98802.05;1693273;84;25815;-83
2021/11/07 01:17:59;;;;;;;;;;;;;;;4.54;70.25;98795.63;1689175;84;24307;-83
2021/11/07 01:20:28;;;;;;;;;;;;;;;4.55;70.28;98787.80;1690738;84;20420;-83
2021/11/07 01:25:21;;;;;;;;;;;;;;;4.58;70.37;98781.18;1692342;84;21974;-82
2021/11/07 01:27:48;;;;;;;;;;;;;;;4.64;70.39;98793.05;1691804;83;26066;-83
2021/11/07 01:30:18;;;;;;;;;;;;;;;4.64;70.43;98782.23;1687408;84;25540;-84
2021/11/07 01:32:48;;;;;;;;;;;;;;;4.63;70.44;98786.20;1681569;84;20338;-84
2021/11/07 01:40:21;;;;;;;;;;;;;;;4.63;70.49;98779.27;1676158;84;26665;-84
2021/11/07 01:42:56;;;;;;;;;;;;;;;4.59;70.52;98767.32;1684265;84;25427;-84
2021/11/07 01:45:23;;;;;;;;;;;;;;;4.51;70.52;98765.51;1684898;84;20255;-84
2021/11/07 01:47:48;;;;;;;;;;;;;;;4.47;70.53;98752.26;1677939;84;24839;-84
2021/11/07 01:50:10;;;;;;;;;;;;;;;4.47;70.52;98741.89;1652998;84;22439;-84
2021/11/07 01:52:40;;;;;;;;;;;;;;;4.53;70.58;98739.05;1715281;83;26159;-84
2021/11/07 01:55:05;;;;;;;;;;;;;;;4.56;70.61;98741.99;1717439;83;24474;-84
2021/11/07 01:57:32;;;;;;;;;;;;;;;4.57;70.68;98747.12;1717219;82;20212;-86
2021/11/07 02:00:00;;;;;;;;;;;;;;;4.57;70.74;98743.23;1717852;83;24715;-83
2021/11/07 02:02:32;;;;;;;;;;;;;;;4.56;70.78;98749.31;1718198;82;20849;-83
2021/11/07 02:04:59;;;;;;;;;;;;;;;4.57;70.80;98746.28;1718268;82;28081;-83
2021/11/07 02:07:25;;;;;;;;;;;;;;;4.61;70.85;98741.35;1736098;81;24505;-83
2021/11/07 02:09:51;;;;;;;;;;;;;;;4.64;70.90;98731.69;1678134;83;20221;-83
2021/11/07 02:12:17;;;;;;;;;;;;;;;4.69;70.95;98728.09;1724712;82;24806;-84
2021/11/07 02:14:43;;;;;;;;;;;;;;;4.71;70.99;98714.59;1722970;83;21973;-84
2021/11/07 02:17:11;;;;;;;;;;;;;;;4.61;71.01;98713.69;1732489;82;25342;-84
2021/11/07 02:19:39;;;;;;;;;;;;;;;4.52;71.01;98719.26;1722097;83;25115;-84
2021/11/07 02:22:09;;;;;;;;;;;;;;;4.55;71.02;98718.27;1723464;82;20201;-84
2021/11/07 02:24:41;;;;;;;;;;;;;;;4.50;71.04;98715.03;1724215;82;25534;-84
2021/11/07 02:27:08;;;;;;;;;;;;;;;4.49;71.04;98718.06;1736061;81;21975;-84
2021/11/07 02:29:36;;;;;;;;;;;;;;;4.48;71.08;98714.23;1731770;81;26098;-84
2021/11/07 02:32:03;;;;;;;;;;;;;;;4.44;71.09;98703.61;1735973;81;25253;-85
2021/11/07 02:34:30;;;;;;;;;;;;;;;4.44;71.12;98707.50;1723338;83;20647;-84
2021/11/07 02:36:58;;;;;;;;;;;;;;;4.46;71.17;98710.88;1723399;83;24777;-85
2021/11/07 02:39:24;;;;;;;;;;;;;;;4.47;71.19;98708.20;1723276;82;21954;-85
2021/11/07 02:41:51;;;;;;;;;;;;;;;4.43;71.22;98703.22;1721642;83;25993;-85
2021/11/07 02:44:31;;;;;;;;;;;;;;;4.42;71.25;98702.85;1722398;81;24688;-85
2021/11/07 02:46:57;;;;;;;;;;;;;;;4.45;71.29;98700.13;1735020;81;20212;-85
2021/11/07 02:49:24;;;;;;;;;;;;;;;4.45;71.33;98688.47;1735258;82;24750;-86
2021/11/07 02:51:50;;;;;;;;;;;;;;;4.46;71.34;98687.11;1734480;81;21947;-85
2021/11/07 02:54:16;;;;;;;;;;;;;;;4.50;71.43;98686.08;1735180;82;25952;-84
2021/11/07 02:56:42;;;;;;;;;;;;;;;4.56;71.46;98687.56;1673424;83;24477;-84
2021/11/07 02:59:10;;;;;;;;;;;;;;;4.55;71.50;98683.28;1724137;82;20378;-84
2021/11/07 03:01:36;;;;;;;;;;;;;;;4.54;71.52;98690.22;1734344;81;24850;-84
2021/11/07 03:04:07;;;;;;;;;;;;;;;4.55;71.56;98693.66;1734428;82;22054;-84
2021/11/07 03:06:34;;;;;;;;;;;;;;;4.53;71.59;98688.97;1731644;81;25971;-85
2021/11/07 03:09:01;;;;;;;;;;;;;;;4.53;71.60;98687.23;1679068;83;25229;-86
2021/11/07 03:11:30;;;;;;;;;;;;;;;4.56;71.65;98679.34;1724262;83;20277;-85
2021/11/07 03:13:59;;;;;;;;;;;;;;;4.57;71.71;98676.30;1724387;83;24828;-85
2021/11/07 03:16:25;;;;;;;;;;;;;;;4.62;71.76;98676.50;1733263;81;22128;-85
2021/11/07 03:18:51;;;;;;;;;;;;;;;4.64;71.78;98679.84;1735076;81;25976;-85
2021/11/07 03:21:20;;;;;;;;;;;;;;;4.68;71.82;98670.66;1736097;81;24428;-85
2021/11/07 03:23:49;;;;;;;;;;;;;;;4.66;71.84;98666.83;1676726;83;20280;-85
2021/11/07 03:26:24;;;;;;;;;;;;;;;4.73;71.89;98664.38;1733511;81;25309;-85
2021/11/07 03:28:52;;;;;;;;;;;;;;;4.76;71.92;98658.20;1735390;81;22067;-85
2021/11/07 03:31:27;;;;;;;;;;;;;;;4.78;71.95;98652.52;1734478;82;26721;-85
2021/11/07 03:33:53;;;;;;;;;;;;;;;4.84;71.97;98643.17;1675231;83;24470;-85
2021/11/07 03:36:19;;;;;;;;;;;;;;;4.90;71.99;98647.64;1723559;82;20308;-85
2021/11/07 03:38:49;;;;;;;;;;;;;;;4.90;72.03;98644.20;1742681;81;24702;-85
2021/11/07 03:41:16;;;;;;;;;;;;;;;4.93;72.03;98644.91;1735542;81;22028;-86
2021/11/07 03:43:42;;;;;;;;;;;;;;;4.91;72.02;98645.41;1725582;82;26176;-84
2021/11/07 03:46:08;;;;;;;;;;;;;;;4.89;72.00;98647.25;1725138;82;24468;-84
2021/11/07 03:48:34;;;;;;;;;;;;;;;4.89;72.01;98642.52;1735129;81;20179;-84
2021/11/07 03:51:01;;;;;;;;;;;;;;;4.90;72.00;98644.20;1716221;83;24759;-84
2021/11/07 03:53:33;;;;;;;;;;;;;;;4.97;72.02;98644.30;1717035;82;21946;-84
2021/11/07 03:56:01;;;;;;;;;;;;;;;5.02;72.02;98641.05;1717123;82;26391;-84
2021/11/07 03:58:27;;;;;;;;;;;;;;;5.00;72.01;98636.41;1717253;82;23586;-84
2021/11/07 04:00:54;;;;;;;;;;;;;;;5.01;72.01;98640.69;1715485;82;20200;-85
2021/11/07 04:03:20;;;;;;;;;;;;;;;5.04;72.00;98639.24;1679182;84;24840;-85
2021/11/07 04:05:46;;;;;;;;;;;;;;;5.07;72.03;98641.72;1679026;84;20879;-84
2021/11/07 04:08:30;;;;;;;;;;;;;;;4.99;72.01;98635.56;1677829;85;22907;-84
2021/11/07 04:10:56;;;;;;;;;;;;;;;4.98;72.00;98626.09;1678805;84;24540;-84
2021/11/07 04:13:31;;;;;;;;;;;;;;;5.01;72.03;98617.34;1678919;84;20634;-84
2021/11/07 04:15:52;;;;;;;;;;;;;;;5.00;72.01;98623.44;1678026;84;24728;-84
2021/11/07 04:18:21;;;;;;;;;;;;;;;5.05;72.00;98622.33;1679011;84;22038;-84
2021/11/07 04:20:47;;;;;;;;;;;;;;;5.15;72.04;98621.45;1677445;84;25992;-84
2021/11/07 04:23:14;;;;;;;;;;;;;;;5.17;72.08;98622.23;1679079;84;24567;-84
2021/11/07 04:25:40;;;;;;;;;;;;;;;5.19;72.08;98616.50;1680487;84;20323;-84
2021/11/07 04:28:07;;;;;;;;;;;;;;;5.23;72.08;98615.48;1680673;84;24736;-84
2021/11/07 04:30:34;;;;;;;;;;;;;;;5.12;72.07;98595.66;1680638;84;22011;-83
2021/11/07 04:33:01;;;;;;;;;;;;;;;5.13;72.06;98590.84;1679147;84;25956;-85
2021/11/07 04:35:28;;;;;;;;;;;;;;;5.11;72.07;98587.48;1670051;84;24404;-85
2021/11/07 04:37:58;;;;;;;;;;;;;;;5.18;72.08;98578.53;1678629;84;20374;-85
2021/11/07 04:40:27;;;;;;;;;;;;;;;5.21;72.09;98582.72;1680786;84;25665;-85
2021/11/07 04:42:53;;;;;;;;;;;;;;;5.25;72.10;98582.95;1680874;84;22013;-85
2021/11/07 04:45:19;;;;;;;;;;;;;;;5.26;72.10;98571.22;1680591;84;25871;-85
2021/11/07 04:47:45;;;;;;;;;;;;;;;5.29;72.12;98560.68;1679534;84;24485;-85
2021/11/07 04:50:13;;;;;;;;;;;;;;;5.33;72.11;98554.45;1679388;84;20454;-85
2021/11/07 04:52:40;;;;;;;;;;;;;;;5.37;72.15;98549.95;1690940;82;24693;-85
2021/11/07 04:55:07;;;;;;;;;;;;;;;5.38;72.18;98543.41;1692993;84;22043;-85
2021/11/07 04:57:33;;;;;;;;;;;;;;;5.41;72.20;98536.76;1691836;84;26022;-84
2021/11/07 04:59:59;;;;;;;;;;;;;;;5.45;72.23;98524.50;1684494;84;24386;-84
2021/11/07 05:02:25;;;;;;;;;;;;;;;5.46;72.23;98521.80;1692769;84;20444;-84
2021/11/07 05:04:55;;;;;;;;;;;;;;;5.47;72.25;98507.08;1691406;84;24759;-85
2021/11/07 05:07:21;;;;;;;;;;;;;;;5.44;72.25;98500.30;1692365;84;22171;-84
2021/11/07 05:09:48;;;;;;;;;;;;;;;5.47;72.27;98488.45;1687616;83;26110;-84
2021/11/07 05:12:14;;;;;;;;;;;;;;;5.49;72.28;98481.91;1692014;84;24701;-84
2021/11/07 05:14:40;;;;;;;;;;;;;;;5.55;72.28;98476.41;1660693;84;20850;-84
2021/11/07 05:17:06;;;;;;;;;;;;;;;5.52;72.29;98471.36;1689541;84;24708;-84
2021/11/07 05:19:36;;;;;;;;;;;;;;;5.52;72.29;98474.41;1694311;84;22646;-84
2021/11/07 05:22:02;;;;;;;;;;;;;;;5.59;72.30;98469.30;1689231;83;26159;-84
2021/11/07 05:24:28;;;;;;;;;;;;;;;5.67;72.31;98465.44;1690266;84;24611;-84
2021/11/07 05:26:54;;;;;;;;;;;;;;;5.71;72.32;98460.47;1691560;84;20356;-84
2021/11/07 05:29:20;;;;;;;;;;;;;;;5.75;72.31;98454.19;1687698;84;24824;-84
2021/11/07 05:31:47;;;;;;;;;;;;;;;5.81;72.31;98446.55;1691792;84;21909;-84
2021/11/07 05:34:13;;;;;;;;;;;;;;;5.88;72.32;98452.70;1689891;83;25981;-84
2021/11/07 05:36:41;;;;;;;;;;;;;;;5.89;72.28;98454.36;1666761;85;25121;-84
2021/11/07 05:39:08;;;;;;;;;;;;;;;5.91;72.24;98446.95;1694180;84;20223;-84
2021/11/07 05:41:34;;;;;;;;;;;;;;;5.86;72.19;98449.30;1689012;84;25245;-84
2021/11/07 05:44:00;;;;;;;;;;;;;;;5.82;72.12;98458.17;1689614;84;22128;-84
2021/11/07 05:46:26;;;;;;;;;;;;;;;5.78;72.04;98453.22;1693708;84;25961;-84
2021/11/07 05:48:52;;;;;;;;;;;;;;;5.76;71.97;98457.17;1692420;84;24499;-84
2021/11/07 05:51:19;;;;;;;;;;;;;;;5.75;71.91;98456.79;1687963;83;20213;-84
2021/11/07 05:53:45;;;;;;;;;;;;;;;5.75;71.87;98461.14;1710530;82;24753;-85
2021/11/07 05:56:11;;;;;;;;;;;;;;;5.73;71.82;98452.58;1714208;82;22038;-85
2021/11/07 05:58:37;;;;;;;;;;;;;;;5.77;71.82;98448.93;1735485;81;25935;-85
2021/11/07 06:01:04;;;;;;;;;;;;;;;5.77;71.80;98456.27;1735372;82;24423;-85
2021/11/07 06:03:30;;;;;;;;;;;;;;;5.76;71.77;98458.93;1733101;81;20402;-85
2021/11/07 06:05:56;;;;;;;;;;;;;;;5.77;71.77;98462.76;1736108;81;24805;-85
2021/11/07 06:08:22;;;;;;;;;;;;;;;5.79;71.75;98457.47;1733936;81;22031;-84
2021/11/07 06:10:48;;;;;;;;;;;;;;;5.78;71.72;98463.60;1723394;83;21059;-85
2021/11/07 06:13:16;;;;;;;;;;;;;;;5.83;71.73;98460.31;1722149;83;25334;-85
2021/11/07 06:15:42;;;;;;;;;;;;;;;5.92;71.74;98456.43;1723198;83;20269;-84
2021/11/07 06:18:09;;;;;;;;;;;;;;;5.98;71.77;98471.70;1723336;81;24712;-84
2021/11/07 06:20:35;;;;;;;;;;;;;;;6.06;71.78;98475.58;1723300;81;22002;-84
2021/11/07 06:23:02;;;;;;;;;;;;;;;6.14;71.80;98460.91;1723395;83;26068;-84
2021/11/07 06:25:28;;;;;;;;;;;;;;;6.23;71.82;98461.73;1723258;81;24412;-84
2021/11/07 06:27:55;;;;;;;;;;;;;;;6.32;71.84;98457.83;1723218;83;20228;-84
2021/11/07 06:30:21;;;;;;;;;;;;;;;6.38;71.86;98445.36;1723170;83;24736;-84
2021/11/07 06:32:49;;;;;;;;;;;;;;;6.43;71.84;98442.51;1712100;83;22257;-85
2021/11/07 06:35:15;;;;;;;;;;;;;;;6.43;71.83;98449.01;1723129;81;26036;-84
2021/11/07 06:37:42;;;;;;;;;;;;;;;6.47;71.79;98442.27;1723223;83;24505;-84
2021/11/07 06:40:09;;;;;;;;;;;;;;;6.50;71.77;98445.98;1721487;83;20318;-85
2021/11/07 06:42:42;;;;;;;;;;;;;;;6.58;71.76;98453.39;1723069;83;24819;-85
2021/11/07 06:45:08;;;;;;;;;;;;;;;6.55;71.73;98445.27;1723218;83;21993;-85
2021/11/07 06:47:34;;;;;;;;;;;;;;;6.56;71.71;98459.12;1735989;81;26041;-85
2021/11/07 06:50:01;;;;;;;;;;;;;;;6.57;71.69;98458.20;1685243;83;24480;-85
2021/11/07 06:52:28;;;;;;;;;;;;;;;6.54;71.64;98461.82;1734133;81;20239;-85
2021/11/07 06:54:54;;;;;;;;;;;;;;;6.51;71.63;98459.36;1735793;81;24279;-85
2021/11/07 06:57:20;;;;;;;;;;;;;;;6.55;71.61;98457.44;1714134;83;21958;-85
2021/11/07 06:59:47;;;;;;;;;;;;;;;6.64;71.59;98450.46;1718148;83;26026;-85
2021/11/07 07:02:14;;;;;;;;;;;;;;;6.73;71.61;98455.16;1718022;83;24430;-83
2021/11/07 07:04:41;;;;;;;;;;;;;;;6.86;71.61;98446.23;1718208;82;20256;-84
2021/11/07 07:07:07;;;;;;;;;;;;;;;6.98;71.63;98448.98;1736011;82;24815;-83
2021/11/07 07:09:43;;;;;;;;;;;;;;;7.13;71.64;98447.31;1677948;83;22021;-85
2021/11/07 07:15:04;;;;;;;;;;;;;;;7.33;71.68;98445.73;1723296;82;24496;-83
2021/11/07 07:17:33;;;;;;;;;;;;;;;7.41;71.66;98451.81;1722781;82;20197;-84
2021/11/07 07:35:57;;;;;;;;;;;;;;;7.73;71.25;98390.05;1724686;82;22596;-87
2021/11/07 07:38:24;;;;;;;;;;;;;;;7.78;71.23;98397.97;1735648;82;25889;-84
2021/11/07 07:40:50;;;;;;;;;;;;;;;7.86;71.14;98397.50;1732082;81;24354;-83
2021/11/07 07:43:17;;;;;;;;;;;;;;;7.88;71.09;98391.74;1717907;83;20155;-84
2021/11/07 07:45:43;;;;;;;;;;;;;;;7.90;71.02;98393.80;1718063;82;24750;-84
2021/11/07 07:48:10;;;;;;;;;;;;;;;7.97;70.96;98396.39;1716453;83;22092;-84
2021/11/07 07:50:38;;;;;;;;;;;;;;;7.97;70.91;98392.48;1718348;82;26417;-84
2021/11/07 07:53:06;;;;;;;;;;;;;;;7.97;70.83;98392.48;1717545;82;24439;-84
2021/11/07 07:55:32;;;;;;;;;;;;;;;8.05;70.78;98396.79;1717970;83;20239;-83
2021/11/07 07:57:59;;;;;;;;;;;;;;;8.09;70.74;98383.94;1718655;82;25520;-83
2021/11/07 08:00:25;;;;;;;;;;;;;;;8.10;70.65;98369.98;1716692;83;22711;-83
2021/11/07 08:02:51;;;;;;;;;;;;;;;8.13;70.59;98370.27;1718292;83;26074;-82
2021/11/07 08:05:17;;;;;;;;;;;;;;;8.18;70.49;98363.01;1735211;81;24419;-83
2021/11/07 08:07:43;;;;;;;;;;;;;;;8.24;70.40;98354.32;1717988;82;20734;-82
2021/11/07 08:10:11;;;;;;;;;;;;;;;8.29;70.33;98356.67;1734317;82;24747;-82
2021/11/07 08:12:39;;;;;;;;;;;;;;;8.33;70.29;98355.57;1735960;81;21950;-83
2021/11/07 08:15:05;;;;;;;;;;;;;;;8.38;70.21;98352.21;1735833;81;26053;-83
2021/11/07 08:17:32;;;;;;;;;;;;;;;8.44;70.15;98344.47;1735044;81;24537;-82
2021/11/07 08:19:58;;;;;;;;;;;;;;;8.49;70.07;98341.11;1736048;82;20260;-83
2021/11/07 08:22:25;;;;;;;;;;;;;;;8.54;69.98;98343.80;1734452;81;24747;-82
2021/11/07 08:24:51;;;;;;;;;;;;;;;8.56;69.89;98339.33;1735376;82;22043;-83
2021/11/07 08:27:17;;;;;;;;;;;;;;;8.62;69.85;98336.80;1735425;82;26040;-82
2021/11/07 08:29:46;;;;;;;;;;;;;;;8.68;69.79;98333.78;1732690;81;24487;-83
2021/11/07 08:32:12;;;;;;;;;;;;;;;8.76;69.76;98320.62;1733895;81;20248;-83
2021/11/07 08:34:38;;;;;;;;;;;;;;;8.83;69.68;98307.19;1724465;83;25415;-83
2021/11/07 08:37:07;;;;;;;;;;;;;;;8.88;69.58;98303.34;1731971;81;22065;-84
2021/11/07 08:39:39;;;;;;;;;;;;;;;8.94;69.47;98304.26;1735778;81;26254;-84
2021/11/07 08:42:08;;;;;;;;;;;;;;;9.03;69.25;98317.16;1735344;81;24536;-84
2021/11/07 09:01:13;;;;;;;;;;;;;;;9.65;67.47;98296.81;1734777;82;24872;-83
2021/11/07 09:03:51;;;;;;;;;;;;;;;9.70;67.18;98286.07;1732334;81;21993;-83
2021/11/07 09:08:51;;;;;;;;;;;;;;;9.82;66.87;98283.09;1717466;83;24446;-86
2021/11/07 09:11:18;;;;;;;;;;;;;;;9.87;66.68;98283.60;1717363;83;20502;-85
2021/11/07 09:13:51;;;;;;;;;;;;;;;9.94;66.50;98290.05;1717791;83;24209;-86
2021/11/07 09:16:17;;;;;;;;;;;;;;;9.97;66.23;98280.70;1717619;83;22055;-86
2021/11/07 09:18:43;;;;;;;;;;;;;;;10.01;65.91;98283.47;1715584;83;26913;-86
2021/11/07 09:21:20;;;;;;;;;;;;;;;10.07;65.68;98283.04;1711650;83;24426;-86
2021/11/07 09:23:45;;;;;;;;;;;;;;;10.13;65.56;98285.23;1713257;83;20623;-83
2021/11/07 09:26:18;;;;;;;;;;;;;;;10.16;65.40;98285.03;1709444;83;25851;-83
2021/11/07 09:28:44;;;;;;;;;;;;;;;10.18;65.20;98270.55;1715772;82;22033;-84
2021/11/07 09:31:14;;;;;;;;;;;;;;;10.19;64.97;98269.61;1715765;83;26890;-83
2021/11/07 09:33:44;;;;;;;;;;;;;;;10.20;64.74;98272.59;1713177;82;24534;-83
2021/11/07 09:38:48;;;;;;;;;;;;;;;10.25;64.31;98271.32;1715352;83;24764;-83
2021/11/07 09:43:59;;;;;;;;;;;;;;;10.33;64.05;98274.21;1714071;83;26010;-83
2021/11/07 09:51:47;;;;;;;;;;;;;;;10.51;63.75;98267.30;1714708;82;24744;-83
2021/11/07 09:54:15;;;;;;;;;;;;;;;10.56;63.66;98274.34;1718352;82;22879;-83
2021/11/07 09:56:48;;;;;;;;;;;;;;;10.61;63.56;98272.23;1718403;83;26152;-83
2021/11/07 09:59:10;;;;;;;;;;;;;;;10.66;63.44;98271.42;1717507;82;24452;-83
2021/11/07 10:01:36;;;;;;;;;;;;;;;10.69;63.33;98269.91;1709556;83;20329;-82
2021/11/07 10:04:03;;;;;;;;;;;;;;;10.70;63.18;98270.23;1720240;82;24717;-83
2021/11/07 10:06:36;;;;;;;;;;;;;;;10.68;63.00;98269.53;1722087;83;22063;-82
2021/11/07 10:09:00;;;;;;;;;;;;;;;10.66;62.85;98266.19;1723189;82;25992;-85
2021/11/07 10:11:33;;;;;;;;;;;;;;;10.59;62.59;98255.80;1718097;81;24426;-85
2021/11/07 10:14:01;;;;;;;;;;;;;;;10.52;62.34;98251.97;1720712;82;20298;-85
2021/11/07 10:16:35;;;;;;;;;;;;;;;10.44;62.09;98255.97;1717815;81;24769;-86
2021/11/07 10:19:18;;;;;;;;;;;;;;;10.38;61.96;98263.41;1720563;83;22004;-86
2021/11/07 10:21:43;;;;;;;;;;;;;;;10.33;61.82;98247.22;1715143;82;27238;-86
2021/11/07 10:24:15;;;;;;;;;;;;;;;10.27;61.65;98244.56;1722808;82;24465;-86
2021/11/07 10:26:42;;;;;;;;;;;;;;;10.31;61.53;98239.97;1715334;82;20243;-85
2021/11/07 10:29:11;;;;;;;;;;;;;;;10.37;61.49;98234.27;1717982;82;24728;-86
2021/11/07 10:31:49;;;;;;;;;;;;;;;10.45;61.45;98231.95;1715877;81;21979;-84
2021/11/07 10:40:06;;;;;;;;;;;;;;;10.76;61.38;98218.28;1723199;82;20219;-84
2021/11/07 10:42:51;;;;;;;;;;;;;;;10.81;61.29;98220.09;1716667;82;24868;-83
2021/11/07 10:45:21;;;;;;;;;;;;;;;10.87;61.21;98205.70;1708432;83;22004;-84
2021/11/07 10:53:15;;;;;;;;;;;;;;;10.75;60.72;98196.14;1723725;82;20322;-83
2021/11/07 10:55:46;;;;;;;;;;;;;;;10.76;60.61;98184.73;1733260;81;24707;-84
2021/11/07 10:58:12;;;;;;;;;;;;;;;10.76;60.53;98171.64;1736145;82;22082;-83
2021/11/07 11:00:44;;;;;;;;;;;;;;;10.72;60.42;98169.73;1728002;82;26191;-84
2021/11/07 11:03:16;;;;;;;;;;;;;;;10.73;60.33;98167.96;1725146;82;25015;-84
2021/11/07 11:05:50;;;;;;;;;;;;;;;10.73;60.24;98158.80;1735724;82;20257;-84
2021/11/07 11:08:24;;;;;;;;;;;;;;;10.73;60.20;98155.70;1732987;82;24756;-84
2021/11/07 11:11:07;;;;;;;;;;;;;;;10.75;60.16;98147.25;1731741;82;22000;-84
2021/11/07 11:13:37;;;;;;;;;;;;;;;10.74;60.08;98139.06;1733018;82;27069;-84
2021/11/07 11:21:27;;;;;;;;;;;;;;;10.67;59.77;98133.92;1688077;82;24913;-83
2021/11/07 11:26:45;;;;;;;;;;;;;;;10.71;59.71;98147.59;1735884;82;26188;-84
2021/11/07 11:32:05;;;;;;;;;;;;;;;10.76;59.65;98124.53;1695396;82;20215;-84
2021/11/07 11:34:33;;;;;;;;;;;;;;;10.76;59.60;98108.35;1737114;82;22595;-84
2021/11/07 11:37:08;;;;;;;;;;;;;;;10.75;59.52;98104.06;1747013;80;22051;-84
2021/11/07 11:39:35;;;;;;;;;;;;;;;10.76;59.53;98100.97;1747757;80;26096;-83
2021/11/07 11:42:05;;;;;;;;;;;;;;;10.75;59.51;98097.52;1746644;81;24467;-83
2021/11/07 11:44:27;;;;;;;;;;;;;;;10.72;59.48;98090.38;1740544;81;20195;-83
2021/11/07 11:47:09;;;;;;;;;;;;;;;10.71;59.44;98080.39;1741768;80;24800;-83
2021/11/07 11:52:26;;;;;;;;;;;;;;;10.72;59.41;98072.06;1736117;82;26310;-83
2021/11/07 11:57:41;;;;;;;;;;;;;;;10.67;59.38;98059.33;1722298;83;20271;-83
2021/11/07 12:00:24;;;;;;;;;;;;;;;10.66;59.31;98056.35;1723466;82;24819;-83
2021/11/07 12:05:42;;;;;;;;;;;;;;;10.65;59.26;98049.45;1723276;81;25950;-83
2021/11/07 12:08:14;;;;;;;;;;;;;;;10.63;59.21;98043.52;1719102;82;24437;-83
2021/11/07 12:10:44;;;;;;;;;;;;;;;10.62;59.15;98027.92;1723283;83;20514;-84
2021/11/07 12:13:28;;;;;;;;;;;;;;;10.64;59.17;98019.46;1723306;82;24775;-84
2021/11/07 12:15:59;;;;;;;;;;;;;;;10.63;59.16;98013.42;1679804;84;21897;-84
2021/11/07 12:18:30;;;;;;;;;;;;;;;10.62;59.08;98005.69;1679711;84;26810;-84
2021/11/07 12:20:57;;;;;;;;;;;;;;;10.65;59.05;98001.51;1669051;83;24749;-84
2021/11/07 12:23:32;;;;;;;;;;;;;;;10.67;59.00;97995.69;1735528;81;20195;-83
2021/11/07 12:25:56;;;;;;;;;;;;;;;10.67;58.91;98006.16;1728977;82;24783;-84
2021/11/07 12:28:42;;;;;;;;;;;;;;;10.69;58.85;98003.77;1722023;83;22229;-83
2021/11/07 12:31:08;;;;;;;;;;;;;;;10.73;58.83;97997.84;1731829;82;25731;-84
2021/11/07 12:33:59;;;;;;;;;;;;;;;10.73;58.77;97987.37;1719981;83;24510;-83
2021/11/07 12:41:53;;;;;;;;;;;;;;;10.85;58.65;97992.97;1720771;83;22149;-83
2021/11/07 12:44:20;;;;;;;;;;;;;;;10.87;58.64;97984.50;1735895;81;26146;-83
2021/11/07 12:46:55;;;;;;;;;;;;;;;10.90;58.64;97982.97;1733297;81;24518;-83
2021/11/07 12:49:23;;;;;;;;;;;;;;;10.96;58.62;97981.18;1734860;81;20247;-83
2021/11/07 12:51:52;;;;;;;;;;;;;;;10.98;58.63;97976.64;1717838;83;24900;-83
2021/11/07 12:54:20;;;;;;;;;;;;;;;11.02;58.67;97974.13;1720615;83;22111;-83
2021/11/07 12:56:58;;;;;;;;;;;;;;;11.06;58.66;97974.27;1718360;83;26043;-84
2021/11/07 12:59:26;;;;;;;;;;;;;;;11.09;58.62;97977.09;1703743;83;24349;-85
2021/11/07 13:02:02;;;;;;;;;;;;;;;11.11;58.54;97973.89;1722567;82;20208;-83
2021/11/07 13:04:31;;;;;;;;;;;;;;;11.12;58.50;97971.16;1722361;83;24922;-83
2021/11/07 13:06:59;;;;;;;;;;;;;;;11.15;58.44;97972.69;1721783;82;22781;-83
2021/11/07 13:09:34;;;;;;;;;;;;;;;11.14;58.37;97980.19;1723289;83;25944;-83
2021/11/07 13:11:57;;;;;;;;;;;;;;;11.15;58.30;97983.16;1720856;82;24422;-83
2021/11/07 13:14:51;;;;;;;;;;;;;;;11.15;58.21;97972.21;1722871;83;20183;-83
2021/11/07 13:17:18;;;;;;;;;;;;;;;11.13;58.11;97979.34;1717304;83;25384;-83
2021/11/07 13:22:39;;;;;;;;;;;;;;;11.09;57.90;97960.91;1735851;82;25984;-83
2021/11/07 13:25:17;;;;;;;;;;;;;;;11.09;57.75;97964.00;1720997;83;24474;-83
2021/11/07 13:27:47;;;;;;;;;;;;;;;11.08;57.64;97967.09;1720608;83;20297;-83
2021/11/07 13:30:18;;;;;;;;;;;;;;;11.05;57.53;97968.66;1723037;82;24818;-84
2021/11/07 13:32:46;;;;;;;;;;;;;;;11.06;57.46;97970.33;1723223;83;22065;-83
2021/11/07 13:35:20;;;;;;;;;;;;;;;11.04;57.37;97968.77;1723373;81;25447;-85
2021/11/07 13:37:54;;;;;;;;;;;;;;;11.04;57.29;97964.38;1722165;83;25874;-85
2021/11/07 13:40:28;;;;;;;;;;;;;;;11.02;57.21;97962.34;1723418;82;20143;-84
2021/11/07 13:43:05;;;;;;;;;;;;;;;11.04;57.14;97951.76;1723736;82;24831;-84
2021/11/07 13:45:32;;;;;;;;;;;;;;;11.04;57.07;97946.52;1721320;83;22586;-85
2021/11/07 13:48:01;;;;;;;;;;;;;;;11.04;57.06;97932.95;1722569;82;25972;-85
2021/11/07 13:50:32;;;;;;;;;;;;;;;11.04;57.00;97938.66;1718881;82;24422;-85
2021/11/07 13:52:59;;;;;;;;;;;;;;;11.04;56.96;97925.09;1722014;83;20348;-84
2021/11/07 13:55:27;;;;;;;;;;;;;;;11.01;56.86;97929.28;1723098;83;24990;-85
2021/11/07 13:57:54;;;;;;;;;;;;;;;10.97;56.72;97920.45;1723591;81;22042;-84
2021/11/07 14:00:22;;;;;;;;;;;;;;;10.94;56.59;97917.63;1720836;83;26631;-84
2021/11/07 14:02:50;;;;;;;;;;;;;;;10.90;56.43;97914.91;1723437;83;24681;-84
2021/11/07 14:05:17;;;;;;;;;;;;;;;10.84;56.20;97910.98;1723002;82;20458;-84
2021/11/07 14:07:45;;;;;;;;;;;;;;;10.81;56.04;97903.83;1723338;83;24868;-84
2021/11/07 14:10:16;;;;;;;;;;;;;;;10.78;55.86;97902.78;1722386;82;22907;-84
2021/11/07 14:12:45;;;;;;;;;;;;;;;10.76;55.63;97896.34;1723359;82;26783;-84
2021/11/07 14:15:14;;;;;;;;;;;;;;;10.76;55.34;97894.20;1734596;81;24572;-84
2021/11/07 14:17:42;;;;;;;;;;;;;;;10.80;55.10;97890.41;1722450;83;20333;-84
2021/11/07 14:20:09;;;;;;;;;;;;;;;10.83;54.88;97881.00;1734542;81;24362;-84
2021/11/07 14:22:37;;;;;;;;;;;;;;;10.87;54.59;97879.79;1719385;83;21963;-84
2021/11/07 14:25:07;;;;;;;;;;;;;;;10.89;54.27;97867.42;1723200;83;26034;-84
2021/11/07 14:27:44;;;;;;;;;;;;;;;10.89;53.99;97865.64;1722885;83;24396;-84
2021/11/07 14:30:05;;;;;;;;;;;;;;;10.86;53.76;97873.72;1722714;83;20438;-84
2021/11/07 14:32:35;;;;;;;;;;;;;;;10.83;53.51;97877.91;1723221;82;25566;-84
2021/11/07 14:35:06;;;;;;;;;;;;;;;10.80;53.22;97872.89;1722782;82;22155;-84
2021/11/07 14:37:56;;;;;;;;;;;;;;;10.76;52.99;97874.10;1723934;81;26226;-84
2021/11/07 14:40:11;;;;;;;;;;;;;;;10.76;52.72;97868.03;1718407;82;25154;-84
2021/11/07 14:42:44;;;;;;;;;;;;;;;10.73;52.53;97873.05;1723057;81;20424;-84
2021/11/07 14:45:14;;;;;;;;;;;;;;;10.70;52.36;97871.97;1724860;82;25507;-84
2021/11/07 14:47:59;;;;;;;;;;;;;;;10.70;52.27;97875.89;1722628;82;22185;-84
2021/11/07 14:50:19;;;;;;;;;;;;;;;10.67;52.16;97882.69;1718338;82;25559;-83
2021/11/07 14:52:56;;;;;;;;;;;;;;;10.65;52.06;97892.44;1718651;83;24610;-83
2021/11/07 14:55:32;;;;;;;;;;;;;;;10.62;51.99;97882.22;1721907;81;20259;-83